Station: Cape Wessel  

  Atmospheric Gas Attenuation - ITU Rec 676-11   ----------------- dB/100km -----------------
Date Time Temp RH % AH g/m3 Dew Point Wind Direction Speed kph Gust kph Barometer mB Rainfall Since 9am 24GHz 47GHz 76GHz 122GHz 134GHz 241GHz
06/05 16:30 29.4 72 21.14 23.8 24 28 1009.5 0 45.0 41.8 82.4 218.1 243.2 845.6
06/05 16:20 29.6 71 21.07 23.8 26 28 1009.3 0 44.9 41.5 81.8 216.6 241.5 839.5
06/05 16:10 29.8 69 20.7 23.5 28 30 1009.3 0 44.1 40.7 79.9 211.5 235.3 817.9
06/05 16:00 29.9 69 20.82 23.6 26 32 1009.3 0 44.3 40.9 80.3 212.7 236.8 823.1
06/05 15:50 30 71 21.53 24.2 26 30 1009.3 0 45.8 42.2 83.5 221.2 247.2 859.4
06/05 15:40 30 71 21.53 24.2 22 26 1009.4 0 45.8 42.2 83.5 221.2 247.2 859.4
06/05 15:30 30.5 69 21.5 24.2 24 30 1009.3 0 45.7 41.9 82.8 219.4 245.1 852.2
06/05 15:20 30.4 70 21.7 24.5 26 32 1009.3 0 46.1 42.3 83.9 222.1 248.5 863.8
06/05 15:10 30.3 69 21.27 24 28 32 1009.3 0 45.2 41.5 82.0 217.1 242.3 842.3
06/05 15:00 30.4 70 21.7 24.5 24 32 1009.3 0 46.1 42.3 83.9 222.1 248.5 863.8
06/05 14:50 30.4 69 21.39 24.1 28 32 1009.3 0 45.4 41.7 82.4 218.3 243.8 847.5
06/05 14:40 30.7 70 22.05 24.6 24 28 1009.5 0 46.8 42.8 85.2 225.6 252.8 879.1
06/05 14:30 29.6 71 21.07 23.8 26 33 1009.6 0 44.9 41.5 81.8 216.7 241.5 839.7
06/05 14:20 30.6 68 21.3 24 28 30 1009.6 0 45.2 41.5 81.8 216.7 241.8 840.7
06/05 14:10 31.4 71 23.22 25.7 24 30 1009.7 0 49.2 44.7 89.9 238.2 268.4 933.4
06/05 14:00 30.3 76 23.43 25.6 22 28 1009.9 0 49.7 45.7 92.3 244.5 275.8 958.8
06/05 13:50 29.3 74 21.61 24.2 24 30 1009.9 0 46.0 42.7 84.7 224.3 250.9 872.0
06/05 13:40 29.4 79 23.19 25.4 22 26 1010 0 49.3 45.7 92.2 244.3 275.3 957.1
06/05 13:30 29.5 78 23.03 25.3 22 30 1010.1 0 49.0 45.4 91.3 241.9 272.4 947.0
06/05 13:20 30.1 78 23.79 26 20 24 1010.1 0 50.5 46.5 94.3 249.8 282.3 981.5
06/05 13:10 29.6 79 23.45 25.6 22 28 1010.3 0 49.9 46.1 93.3 247.1 278.8 969.2
06/05 13:00 29.7 78 23.28 25.4 24 33 1010.3 0 49.5 45.8 92.3 244.5 275.7 958.5
06/05 12:50 30.3 70 21.58 24.4 33 37 1010.4 0 45.8 42.2 83.5 221.1 247.1 859.3
06/05 12:40 30.1 72 21.96 24.5 28 32 1010.5 0 46.7 43.0 85.5 226.5 253.6 881.8
06/05 12:30 30.6 69 21.62 24.3 33 43 1010.6 0 45.9 42.1 83.4 220.8 246.8 858.1
06/05 12:20 30.9 72 22.92 25.3 39 43 1010.7 0 48.6 44.4 89.2 236.2 265.7 924.0
06/05 12:10 30.6 73 22.87 25.2 35 39 1010.8 0 48.5 44.5 89.3 236.5 266.1 925.0
06/05 12:00 30.8 68 21.53 24.2 33 46 1010.9 0 45.7 41.9 82.8 219.1 244.8 851.3
06/05 11:50 31.2 69 22.33 24.8 35 39 1011 0 47.3 43.2 86.0 227.9 255.7 889.0
06/05 11:40 31.5 69 22.69 25.1 32 35 1011.1 0 48.0 43.7 87.4 231.5 260.2 904.6
06/05 11:30 31.2 70 22.65 25.1 33 43 1011.1 0 48.0 43.8 87.6 231.9 260.6 906.1
06/05 11:20 31.1 71 22.85 25.4 32 39 1011.2 0 48.4 44.2 88.6 234.7 264.0 918.1
06/05 11:10 30.5 70 21.81 24.6 37 41 1011.3 0 46.3 42.5 84.4 223.5 250.1 869.7
06/05 11:00 30.5 72 22.44 24.9 33 43 1011.4 0 47.6 43.7 87.4 231.4 259.8 903.4
06/05 10:50 31.3 70 22.77 25.2 33 39 1011.6 0 48.2 44.0 88.0 233.2 262.2 911.6
06/05 09:10 29.2 76 22.07 24.5 37 41 1012 0 47.0 43.7 87.2 230.8 258.7 899.2
06/05 09:00 28.4 84 23.35 25.4 28 41 1012.1 0 49.8 46.7 94.4 250.1 282.1 980.4
06/05 08:50 27.6 84 22.35 24.6 19 20 1012.1 0.2 47.8 45.2 90.4 239.5 268.9 934.3
06/05 08:40 28.2 81 22.27 24.6 28 30 1012 0.2 47.5 44.7 89.3 236.5 265.4 922.3
06/05 08:30 27.8 83 22.33 24.6 32 41 1011.9 0.2 47.7 45.0 90.1 238.5 267.8 930.6
06/05 08:20 27.5 85 22.49 24.7 26 35 1011.8 0.2 48.1 45.5 91.2 241.6 271.4 943.2
06/05 08:10 27.6 84 22.35 24.6 33 39 1011.8 0.2 47.8 45.1 90.4 239.4 268.8 934.1
06/05 08:00 27.4 86 22.63 24.8 32 41 1011.8 0.2 48.4 45.8 92.1 243.8 274.1 952.4
06/05 07:50 27.8 87 23.4 25.4 28 33 1011.7 0.2 50.0 47.1 95.4 252.7 285.1 990.9
06/05 07:40 27.2 87 22.64 24.8 30 35 1011.6 0.2 48.5 45.9 92.3 244.5 274.9 955.4
06/05 07:30 27.3 88 23.03 25.1 28 37 1011.5 0.2 49.3 46.7 94.2 249.4 280.9 976.2
06/05 07:20 26.7 89 22.53 24.7 28 33 1011.5 0.2 48.3 46.0 92.4 244.7 275.0 955.5
06/05 07:10 26.3 91 22.53 24.7 32 35 1011.4 0.2 48.3 46.2 92.9 246.0 276.5 960.6
06/05 07:00 26.5 89 22.28 24.5 28 39 1011.3 0.2 47.8 45.6 91.4 241.9 271.6 943.7
06/05 06:50 27 85 21.88 24.3 30 35 1011.2 0 46.9 44.5 88.8 235.0 263.3 914.9
06/05 06:40 26.8 84 21.38 23.9 30 35 1011.1 0 45.8 43.6 86.5 229.1 256.0 889.4
06/05 06:30 26.8 86 21.89 24.3 30 35 1011 0 46.9 44.6 89.1 235.8 264.1 917.8
06/05 06:20 26.7 87 22.02 24.4 24 32 1010.9 0 47.2 44.9 89.8 237.8 266.6 926.2
06/05 06:10 26.7 86 21.77 24.2 24 28 1010.7 0 46.7 44.4 88.6 234.5 262.5 912.1
06/05 06:00 27 83 21.36 23.9 28 37 1010.7 0 45.8 43.5 86.2 228.2 254.9 885.7
06/05 05:50 27 83 21.36 23.9 26 32 1010.4 0 45.8 43.5 86.2 228.1 254.8 885.5
06/05 05:40 26.9 84 21.5 24 33 35 1010.3 0 46.1 43.8 87.0 230.2 257.4 894.4
06/05 05:30 26.9 83 21.24 23.8 30 37 1010.2 0 45.5 43.3 85.7 226.8 253.2 880.0
06/05 05:20 26.9 84 21.5 24 28 32 1010.1 0 46.1 43.8 87.0 230.2 257.4 894.3
06/05 05:10 26.8 83 21.13 23.7 32 35 1010 0 45.3 43.1 85.3 225.7 251.8 875.0
06/05 05:00 26.8 84 21.38 23.9 30 39 1010 0 45.8 43.6 86.5 228.9 255.8 888.8
06/05 04:50 27 85 21.88 24.3 26 30 1009.9 0 46.9 44.5 88.7 234.8 263.1 914.1
06/05 04:40 26.9 83 21.24 23.8 28 32 1010 0 45.5 43.3 85.7 226.8 253.2 879.9
06/05 04:30 26.9 83 21.24 23.8 30 39 1010 0 45.5 43.3 85.7 226.8 253.2 879.9
06/05 04:20 27 83 21.36 23.9 32 35 1010 0 45.8 43.4 86.1 228.1 254.8 885.3
06/05 04:10 27 83 21.36 23.9 32 35 1009.9 0 45.8 43.4 86.1 228.0 254.8 885.2
06/05 04:00 26.9 83 21.24 23.8 30 35 1009.9 0 45.5 43.3 85.7 226.8 253.2 879.8
06/05 03:50 27 82 21.1 23.7 30 33 1010.1 0 45.2 42.9 84.9 224.7 250.7 871.1
06/05 03:40 27 81 20.85 23.5 32 35 1010 0 44.7 42.5 83.7 221.5 246.7 857.3
06/05 03:30 27.2 84 21.86 24.3 32 39 1009.9 0 46.8 44.3 88.4 233.9 262.0 910.5
06/05 03:20 27 83 21.36 23.9 28 32 1010 0 45.8 43.4 86.1 228.1 254.8 885.3
06/05 03:10 27 83 21.36 23.9 30 35 1010 0 45.8 43.4 86.1 228.1 254.8 885.3
06/05 03:00 27.1 82 21.22 23.8 30 39 1010.2 0 45.5 43.1 85.4 226.0 252.2 876.5
06/05 02:50 27.1 82 21.22 23.8 33 37 1010.2 0 45.5 43.1 85.4 226.0 252.2 876.5
06/05 02:40 27.2 84 21.86 24.3 32 35 1010.2 0 46.8 44.3 88.4 234.0 262.1 910.7
06/05 02:30 27.1 81 20.96 23.6 32 39 1010.2 0 44.9 42.6 84.1 222.7 248.2 862.3
06/05 02:20 27.2 83 21.6 24.1 28 33 1010.3 0 46.3 43.8 87.1 230.6 257.9 896.4
06/05 02:10 27.2 82 21.34 23.9 33 37 1010.4 0 45.7 43.3 85.8 227.3 253.8 882.1
06/05 02:00 27.3 82 21.46 24 32 41 1010.5 0 45.9 43.5 86.3 228.5 255.4 887.6
06/05 01:50 27.2 80 20.82 23.4 35 43 1010.5 0 44.6 42.3 83.3 220.6 245.7 853.7
06/05 01:40 27.4 82 21.58 24 32 43 1010.5 0 46.2 43.7 86.8 229.8 257.0 893.0
06/05 01:30 27.4 80 21.05 23.6 37 46 1010.6 0 45.1 42.7 84.2 223.0 248.6 864.0
06/05 01:20 27.4 82 21.58 24 35 41 1010.7 0 46.2 43.7 86.8 229.8 257.0 893.1
06/05 01:10 27.3 82 21.46 24 33 37 1010.8 0 45.9 43.5 86.3 228.6 255.5 887.7
06/05 01:00 27.3 82 21.46 24 32 39 1010.9 0 45.9 43.5 86.3 228.6 255.5 887.8
06/05 00:50 27.4 81 21.31 23.8 32 37 1010.9 0 45.6 43.2 85.5 226.4 252.8 878.4
06/05 00:40 27.3 81 21.2 23.7 35 41 1011 0 45.4 43.0 85.1 225.3 251.4 873.6
06/05 00:30 27.4 83 21.84 24.3 33 41 1011.1 0 46.7 44.2 88.1 233.3 261.2 907.7
06/05 00:20 27.4 82 21.58 24 35 41 1011.2 0 46.2 43.7 86.8 229.9 257.1 893.4
06/05 00:10 27.3 82 21.46 24 35 39 1011.2 0 45.9 43.5 86.4 228.6 255.5 888.0
06/05 00:00 27.3 82 21.46 24 32 41 1011.3 0 45.9 43.5 86.4 228.7 255.5 888.0
05/05 23:50 27.2 82 21.34 23.9 30 37 1011.3 0 45.7 43.4 85.9 227.4 254.0 882.6
05/05 23:40 27.3 83 21.72 24.2 30 32 1011.3 0 46.5 44.0 87.6 232.0 259.7 902.4
05/05 23:30 27.4 83 21.84 24.3 32 43 1011.3 0 46.7 44.2 88.1 233.3 261.2 907.8
05/05 23:20 27.3 82 21.46 24 32 37 1011.3 0 45.9 43.5 86.4 228.7 255.5 888.0
05/05 23:10 27.3 81 21.2 23.7 35 39 1011.3 0 45.4 43.0 85.1 225.3 251.4 873.7
05/05 23:00 27.3 79 20.67 23.3 33 43 1011.3 0 44.3 42.0 82.6 218.6 243.1 844.9
05/05 22:50 27.3 80 20.93 23.5 33 39 1011.4 0 44.8 42.5 83.8 221.9 247.2 859.1
05/05 22:40 27.3 78 20.41 23.1 26 32 1011.4 0 43.7 41.5 81.3 215.3 239.1 830.9
05/05 22:30 27.5 79 20.9 23.5 30 37 1011.4 0 44.7 42.4 83.5 220.9 246.1 855.2

Last Refresh: 06-May-2026 16:37:15

Bureau of Meteorology